sensor_id;sensor_type;location;lat;lon;timestamp;P1;durP1;ratioP1;P2;durP2;ratioP2
55647;SDS011;45266;48.756;9.246;2023-04-12T00:00:29;4.33;;;2.13;;
55647;SDS011;45266;48.756;9.246;2023-04-12T00:01:31;6.37;;;2.63;;
55647;SDS011;45266;48.756;9.246;2023-04-12T00:02:33;4.03;;;2.30;;
55647;SDS011;45266;48.756;9.246;2023-04-12T00:03:36;5.00;;;2.33;;
55647;SDS011;45266;48.756;9.246;2023-04-12T00:04:39;3.80;;;2.50;;
55647;SDS011;45266;48.756;9.246;2023-04-12T00:05:41;3.73;;;2.20;;
55647;SDS011;45266;48.756;9.246;2023-04-12T00:06:47;7.37;;;2.73;;
55647;SDS011;45266;48.756;9.246;2023-04-12T00:07:48;4.30;;;2.50;;
55647;SDS011;45266;48.756;9.246;2023-04-12T00:08:53;4.80;;;2.30;;
55647;SDS011;45266;48.756;9.246;2023-04-12T00:09:55;6.00;;;2.50;;
55647;SDS011;45266;48.756;9.246;2023-04-12T00:10:57;3.47;;;2.57;;
55647;SDS011;45266;48.756;9.246;2023-04-12T00:12:02;4.90;;;2.70;;
55647;SDS011;45266;48.756;9.246;2023-04-12T00:13:06;3.30;;;2.30;;
55647;SDS011;45266;48.756;9.246;2023-04-12T00:14:08;4.20;;;2.30;;
55647;SDS011;45266;48.756;9.246;2023-04-12T00:15:10;3.77;;;2.43;;
55647;SDS011;45266;48.756;9.246;2023-04-12T00:16:11;7.07;;;2.90;;
55647;SDS011;45266;48.756;9.246;2023-04-12T00:17:16;7.57;;;2.37;;
55647;SDS011;45266;48.756;9.246;2023-04-12T00:18:19;5.03;;;2.43;;
55647;SDS011;45266;48.756;9.246;2023-04-12T00:19:25;3.77;;;2.30;;
55647;SDS011;45266;48.756;9.246;2023-04-12T00:20:27;5.03;;;2.60;;
55647;SDS011;45266;48.756;9.246;2023-04-12T00:21:29;4.77;;;2.40;;
55647;SDS011;45266;48.756;9.246;2023-04-12T00:22:31;4.57;;;2.37;;
55647;SDS011;45266;48.756;9.246;2023-04-12T00:23:33;3.23;;;2.20;;
55647;SDS011;45266;48.756;9.246;2023-04-12T00:24:37;5.47;;;2.60;;
55647;SDS011;45266;48.756;9.246;2023-04-12T00:25:39;7.37;;;2.93;;
55647;SDS011;45266;48.756;9.246;2023-04-12T00:26:41;4.70;;;2.57;;
55647;SDS011;45266;48.756;9.246;2023-04-12T00:27:43;5.13;;;2.80;;
55647;SDS011;45266;48.756;9.246;2023-04-12T00:28:45;9.63;;;3.00;;
55647;SDS011;45266;48.756;9.246;2023-04-12T00:29:46;6.03;;;2.73;;
55647;SDS011;45266;48.756;9.246;2023-04-12T00:30:48;5.03;;;2.83;;
55647;SDS011;45266;48.756;9.246;2023-04-12T00:31:50;5.17;;;2.93;;
55647;SDS011;45266;48.756;9.246;2023-04-12T00:32:52;6.90;;;3.10;;
55647;SDS011;45266;48.756;9.246;2023-04-12T00:33:54;4.70;;;2.60;;
55647;SDS011;45266;48.756;9.246;2023-04-12T00:34:56;4.20;;;2.30;;
55647;SDS011;45266;48.756;9.246;2023-04-12T00:35:58;5.17;;;2.70;;
55647;SDS011;45266;48.756;9.246;2023-04-12T00:37:00;5.80;;;2.80;;
55647;SDS011;45266;48.756;9.246;2023-04-12T00:38:02;6.60;;;3.13;;
55647;SDS011;45266;48.756;9.246;2023-04-12T00:39:06;4.43;;;2.83;;
55647;SDS011;45266;48.756;9.246;2023-04-12T00:40:09;6.17;;;2.70;;
55647;SDS011;45266;48.756;9.246;2023-04-12T00:41:11;4.70;;;2.67;;
55647;SDS011;45266;48.756;9.246;2023-04-12T00:42:17;7.87;;;2.67;;
55647;SDS011;45266;48.756;9.246;2023-04-12T00:43:19;5.00;;;2.70;;
55647;SDS011;45266;48.756;9.246;2023-04-12T00:44:20;5.60;;;2.40;;
55647;SDS011;45266;48.756;9.246;2023-04-12T00:45:23;5.43;;;2.27;;
55647;SDS011;45266;48.756;9.246;2023-04-12T00:46:25;6.13;;;2.70;;
55647;SDS011;45266;48.756;9.246;2023-04-12T00:47:27;4.13;;;2.10;;
55647;SDS011;45266;48.756;9.246;2023-04-12T00:48:29;6.63;;;2.40;;
55647;SDS011;45266;48.756;9.246;2023-04-12T00:49:31;4.50;;;2.50;;
55647;SDS011;45266;48.756;9.246;2023-04-12T00:50:34;3.83;;;2.00;;
55647;SDS011;45266;48.756;9.246;2023-04-12T00:51:36;5.60;;;2.50;;
55647;SDS011;45266;48.756;9.246;2023-04-12T00:52:39;7.40;;;2.17;;
55647;SDS011;45266;48.756;9.246;2023-04-12T00:53:41;4.73;;;2.30;;
55647;SDS011;45266;48.756;9.246;2023-04-12T00:54:43;6.30;;;1.90;;
55647;SDS011;45266;48.756;9.246;2023-04-12T00:55:45;2.47;;;1.90;;
55647;SDS011;45266;48.756;9.246;2023-04-12T00:56:48;5.00;;;2.20;;
55647;SDS011;45266;48.756;9.246;2023-04-12T00:57:50;5.87;;;2.10;;
55647;SDS011;45266;48.756;9.246;2023-04-12T00:58:53;4.90;;;2.30;;
55647;SDS011;45266;48.756;9.246;2023-04-12T00:59:55;5.55;;;2.67;;
55647;SDS011;45266;48.756;9.246;2023-04-12T01:00:57;6.60;;;2.87;;
55647;SDS011;45266;48.756;9.246;2023-04-12T01:01:59;2.83;;;1.97;;
55647;SDS011;45266;48.756;9.246;2023-04-12T01:03:02;4.20;;;1.90;;
55647;SDS011;45266;48.756;9.246;2023-04-12T01:04:05;4.23;;;2.40;;
55647;SDS011;45266;48.756;9.246;2023-04-12T01:05:08;3.53;;;1.90;;
55647;SDS011;45266;48.756;9.246;2023-04-12T01:06:17;4.17;;;1.90;;
55647;SDS011;45266;48.756;9.246;2023-04-12T01:11:47;4.20;;;2.17;;
55647;SDS011;45266;48.756;9.246;2023-04-12T01:14:10;4.60;;;2.23;;
55647;SDS011;45266;48.756;9.246;2023-04-12T01:15:16;5.97;;;2.17;;
55647;SDS011;45266;48.756;9.246;2023-04-12T01:17:27;3.93;;;2.10;;
55647;SDS011;45266;48.756;9.246;2023-04-12T01:18:32;4.20;;;2.47;;
55647;SDS011;45266;48.756;9.246;2023-04-12T01:20:56;6.83;;;2.40;;
55647;SDS011;45266;48.756;9.246;2023-04-12T01:22:10;4.57;;;2.17;;
55647;SDS011;45266;48.756;9.246;2023-04-12T01:26:57;5.47;;;2.53;;
55647;SDS011;45266;48.756;9.246;2023-04-12T01:28:02;3.60;;;2.03;;
55647;SDS011;45266;48.756;9.246;2023-04-12T01:29:15;3.77;;;2.17;;
55647;SDS011;45266;48.756;9.246;2023-04-12T01:30:21;5.03;;;2.22;;
55647;SDS011;45266;48.756;9.246;2023-04-12T01:31:26;5.00;;;2.10;;
55647;SDS011;45266;48.756;9.246;2023-04-12T01:32:31;3.10;;;2.13;;
55647;SDS011;45266;48.756;9.246;2023-04-12T01:33:35;4.73;;;2.13;;
55647;SDS011;45266;48.756;9.246;2023-04-12T01:34:38;4.73;;;2.43;;
55647;SDS011;45266;48.756;9.246;2023-04-12T01:35:41;5.83;;;2.23;;
55647;SDS011;45266;48.756;9.246;2023-04-12T01:36:44;4.77;;;2.00;;
55647;SDS011;45266;48.756;9.246;2023-04-12T01:37:48;5.37;;;2.20;;
55647;SDS011;45266;48.756;9.246;2023-04-12T01:38:50;6.80;;;2.20;;
55647;SDS011;45266;48.756;9.246;2023-04-12T01:39:52;4.27;;;2.03;;
55647;SDS011;45266;48.756;9.246;2023-04-12T01:40:54;6.07;;;2.43;;
55647;SDS011;45266;48.756;9.246;2023-04-12T01:41:56;3.60;;;2.10;;
55647;SDS011;45266;48.756;9.246;2023-04-12T01:43:11;3.90;;;2.20;;
55647;SDS011;45266;48.756;9.246;2023-04-12T01:44:14;2.83;;;1.87;;
55647;SDS011;45266;48.756;9.246;2023-04-12T01:45:17;8.13;;;2.30;;
55647;SDS011;45266;48.756;9.246;2023-04-12T01:46:19;2.23;;;1.63;;
55647;SDS011;45266;48.756;9.246;2023-04-12T01:47:23;4.07;;;2.43;;
55647;SDS011;45266;48.756;9.246;2023-04-12T01:48:25;5.97;;;2.77;;
55647;SDS011;45266;48.756;9.246;2023-04-12T01:49:30;7.07;;;1.93;;
55647;SDS011;45266;48.756;9.246;2023-04-12T01:51:51;5.03;;;2.43;;
55647;SDS011;45266;48.756;9.246;2023-04-12T01:53:02;3.13;;;2.30;;
55647;SDS011;45266;48.756;9.246;2023-04-12T01:54:30;4.70;;;2.23;;
55647;SDS011;45266;48.756;9.246;2023-04-12T01:55:37;4.30;;;2.27;;
55647;SDS011;45266;48.756;9.246;2023-04-12T01:56:43;4.20;;;2.33;;
55647;SDS011;45266;48.756;9.246;2023-04-12T01:57:48;5.03;;;2.30;;
55647;SDS011;45266;48.756;9.246;2023-04-12T01:58:52;4.07;;;2.57;;
55647;SDS011;45266;48.756;9.246;2023-04-12T01:59:55;5.87;;;2.30;;
55647;SDS011;45266;48.756;9.246;2023-04-12T02:01:00;4.67;;;2.33;;
55647;SDS011;45266;48.756;9.246;2023-04-12T02:02:03;4.47;;;2.30;;
55647;SDS011;45266;48.756;9.246;2023-04-12T02:03:05;3.53;;;2.20;;
55647;SDS011;45266;48.756;9.246;2023-04-12T02:04:07;5.20;;;2.50;;
55647;SDS011;45266;48.756;9.246;2023-04-12T02:05:10;5.73;;;2.27;;
55647;SDS011;45266;48.756;9.246;2023-04-12T02:06:13;5.03;;;2.50;;
55647;SDS011;45266;48.756;9.246;2023-04-12T02:07:15;5.47;;;2.40;;
55647;SDS011;45266;48.756;9.246;2023-04-12T02:08:19;2.70;;;2.13;;
55647;SDS011;45266;48.756;9.246;2023-04-12T02:09:21;7.03;;;2.50;;
55647;SDS011;45266;48.756;9.246;2023-04-12T02:10:27;5.87;;;2.30;;
55647;SDS011;45266;48.756;9.246;2023-04-12T02:11:30;6.37;;;2.50;;
55647;SDS011;45266;48.756;9.246;2023-04-12T02:12:31;5.47;;;2.10;;
55647;SDS011;45266;48.756;9.246;2023-04-12T02:13:33;4.23;;;2.63;;
55647;SDS011;45266;48.756;9.246;2023-04-12T02:14:35;4.63;;;2.43;;
55647;SDS011;45266;48.756;9.246;2023-04-12T02:15:37;5.37;;;2.57;;
55647;SDS011;45266;48.756;9.246;2023-04-12T02:16:40;7.50;;;2.17;;
55647;SDS011;45266;48.756;9.246;2023-04-12T02:17:44;5.50;;;2.03;;
55647;SDS011;45266;48.756;9.246;2023-04-12T02:18:46;5.97;;;2.40;;
55647;SDS011;45266;48.756;9.246;2023-04-12T02:19:48;6.27;;;2.17;;
55647;SDS011;45266;48.756;9.246;2023-04-12T02:20:50;5.07;;;2.27;;
55647;SDS011;45266;48.756;9.246;2023-04-12T02:21:52;5.43;;;2.43;;
55647;SDS011;45266;48.756;9.246;2023-04-12T02:22:54;4.80;;;2.53;;
55647;SDS011;45266;48.756;9.246;2023-04-12T02:23:55;6.33;;;2.33;;
55647;SDS011;45266;48.756;9.246;2023-04-12T02:24:58;3.60;;;2.17;;
55647;SDS011;45266;48.756;9.246;2023-04-12T02:26:00;5.33;;;2.47;;
55647;SDS011;45266;48.756;9.246;2023-04-12T02:27:01;3.90;;;2.20;;
55647;SDS011;45266;48.756;9.246;2023-04-12T02:28:04;4.47;;;2.70;;
55647;SDS011;45266;48.756;9.246;2023-04-12T02:29:07;5.07;;;2.50;;
55647;SDS011;45266;48.756;9.246;2023-04-12T02:30:09;2.67;;;2.10;;
55647;SDS011;45266;48.756;9.246;2023-04-12T02:31:12;4.60;;;2.60;;
55647;SDS011;45266;48.756;9.246;2023-04-12T02:32:15;6.83;;;2.20;;
55647;SDS011;45266;48.756;9.246;2023-04-12T02:33:17;4.30;;;2.70;;
55647;SDS011;45266;48.756;9.246;2023-04-12T02:34:21;2.93;;;2.40;;
55647;SDS011;45266;48.756;9.246;2023-04-12T02:35:23;5.20;;;2.70;;
55647;SDS011;45266;48.756;9.246;2023-04-12T02:36:25;6.60;;;2.50;;
55647;SDS011;45266;48.756;9.246;2023-04-12T02:37:27;6.30;;;2.60;;
55647;SDS011;45266;48.756;9.246;2023-04-12T02:38:30;5.00;;;2.33;;
55647;SDS011;45266;48.756;9.246;2023-04-12T02:39:32;6.50;;;2.77;;
55647;SDS011;45266;48.756;9.246;2023-04-12T02:40:37;5.30;;;2.47;;
55647;SDS011;45266;48.756;9.246;2023-04-12T02:41:41;3.97;;;2.60;;
55647;SDS011;45266;48.756;9.246;2023-04-12T02:42:43;6.37;;;2.63;;
55647;SDS011;45266;48.756;9.246;2023-04-12T02:43:44;4.60;;;3.40;;
55647;SDS011;45266;48.756;9.246;2023-04-12T02:44:47;5.43;;;3.13;;
55647;SDS011;45266;48.756;9.246;2023-04-12T02:45:48;3.37;;;2.80;;
55647;SDS011;45266;48.756;9.246;2023-04-12T02:46:51;7.33;;;3.47;;
55647;SDS011;45266;48.756;9.246;2023-04-12T02:47:53;7.67;;;3.47;;
55647;SDS011;45266;48.756;9.246;2023-04-12T02:48:54;4.23;;;3.37;;
55647;SDS011;45266;48.756;9.246;2023-04-12T02:49:56;7.20;;;3.30;;
55647;SDS011;45266;48.756;9.246;2023-04-12T02:50:58;6.47;;;3.90;;
55647;SDS011;45266;48.756;9.246;2023-04-12T02:52:00;7.60;;;3.73;;
55647;SDS011;45266;48.756;9.246;2023-04-12T02:53:02;5.80;;;3.80;;
55647;SDS011;45266;48.756;9.246;2023-04-12T02:54:04;6.87;;;3.93;;
55647;SDS011;45266;48.756;9.246;2023-04-12T02:55:06;7.30;;;3.77;;
55647;SDS011;45266;48.756;9.246;2023-04-12T02:56:08;8.20;;;3.43;;
55647;SDS011;45266;48.756;9.246;2023-04-12T02:57:10;7.90;;;3.50;;
55647;SDS011;45266;48.756;9.246;2023-04-12T02:58:12;5.70;;;3.33;;
55647;SDS011;45266;48.756;9.246;2023-04-12T02:59:14;5.10;;;3.80;;
55647;SDS011;45266;48.756;9.246;2023-04-12T03:00:16;6.10;;;3.50;;
55647;SDS011;45266;48.756;9.246;2023-04-12T03:01:18;6.50;;;3.87;;
55647;SDS011;45266;48.756;9.246;2023-04-12T03:02:20;7.67;;;3.43;;
55647;SDS011;45266;48.756;9.246;2023-04-12T03:03:23;6.80;;;3.97;;
55647;SDS011;45266;48.756;9.246;2023-04-12T03:04:26;5.70;;;3.87;;
55647;SDS011;45266;48.756;9.246;2023-04-12T03:05:31;7.70;;;4.13;;
55647;SDS011;45266;48.756;9.246;2023-04-12T03:06:32;8.27;;;3.70;;
55647;SDS011;45266;48.756;9.246;2023-04-12T03:07:35;6.10;;;3.53;;
55647;SDS011;45266;48.756;9.246;2023-04-12T03:08:36;10.27;;;3.90;;
55647;SDS011;45266;48.756;9.246;2023-04-12T03:09:39;7.93;;;3.83;;
55647;SDS011;45266;48.756;9.246;2023-04-12T03:10:42;5.47;;;3.83;;
55647;SDS011;45266;48.756;9.246;2023-04-12T03:11:45;4.60;;;3.50;;
55647;SDS011;45266;48.756;9.246;2023-04-12T03:12:47;7.23;;;3.23;;
55647;SDS011;45266;48.756;9.246;2023-04-12T03:13:48;9.17;;;4.20;;
55647;SDS011;45266;48.756;9.246;2023-04-12T03:14:51;6.33;;;3.70;;
55647;SDS011;45266;48.756;9.246;2023-04-12T03:15:57;7.40;;;3.77;;
55647;SDS011;45266;48.756;9.246;2023-04-12T03:17:00;9.87;;;3.90;;
55647;SDS011;45266;48.756;9.246;2023-04-12T03:18:02;6.03;;;2.80;;
55647;SDS011;45266;48.756;9.246;2023-04-12T03:19:03;7.67;;;3.60;;
55647;SDS011;45266;48.756;9.246;2023-04-12T03:20:07;5.90;;;3.70;;
55647;SDS011;45266;48.756;9.246;2023-04-12T03:21:10;6.70;;;3.67;;
55647;SDS011;45266;48.756;9.246;2023-04-12T03:22:12;8.83;;;3.73;;
55647;SDS011;45266;48.756;9.246;2023-04-12T03:23:14;4.27;;;3.43;;
55647;SDS011;45266;48.756;9.246;2023-04-12T03:24:16;5.73;;;3.40;;
55647;SDS011;45266;48.756;9.246;2023-04-12T03:25:18;5.53;;;3.47;;
55647;SDS011;45266;48.756;9.246;2023-04-12T03:26:20;7.23;;;3.50;;
55647;SDS011;45266;48.756;9.246;2023-04-12T03:27:21;6.97;;;3.77;;
55647;SDS011;45266;48.756;9.246;2023-04-12T03:28:23;7.77;;;3.73;;
55647;SDS011;45266;48.756;9.246;2023-04-12T03:29:25;5.90;;;3.20;;
55647;SDS011;45266;48.756;9.246;2023-04-12T03:30:27;6.27;;;3.70;;
55647;SDS011;45266;48.756;9.246;2023-04-12T03:31:29;5.83;;;3.70;;
55647;SDS011;45266;48.756;9.246;2023-04-12T03:32:31;7.27;;;4.27;;
55647;SDS011;45266;48.756;9.246;2023-04-12T03:33:33;5.83;;;3.53;;
55647;SDS011;45266;48.756;9.246;2023-04-12T03:34:35;6.17;;;3.83;;
55647;SDS011;45266;48.756;9.246;2023-04-12T03:35:36;7.00;;;3.90;;
55647;SDS011;45266;48.756;9.246;2023-04-12T03:36:38;7.40;;;4.30;;
55647;SDS011;45266;48.756;9.246;2023-04-12T03:37:41;6.90;;;3.93;;
55647;SDS011;45266;48.756;9.246;2023-04-12T03:38:44;6.43;;;4.13;;
55647;SDS011;45266;48.756;9.246;2023-04-12T03:39:46;7.90;;;4.40;;
55647;SDS011;45266;48.756;9.246;2023-04-12T03:40:48;5.83;;;3.63;;
55647;SDS011;45266;48.756;9.246;2023-04-12T03:41:50;6.90;;;3.43;;
55647;SDS011;45266;48.756;9.246;2023-04-12T03:42:53;6.43;;;4.30;;
55647;SDS011;45266;48.756;9.246;2023-04-12T03:43:55;5.77;;;3.40;;
55647;SDS011;45266;48.756;9.246;2023-04-12T03:44:57;5.87;;;4.03;;
55647;SDS011;45266;48.756;9.246;2023-04-12T03:45:59;7.57;;;4.17;;
55647;SDS011;45266;48.756;9.246;2023-04-12T03:47:01;7.60;;;4.10;;
55647;SDS011;45266;48.756;9.246;2023-04-12T03:48:02;7.33;;;3.90;;
55647;SDS011;45266;48.756;9.246;2023-04-12T03:49:05;7.53;;;3.90;;
55647;SDS011;45266;48.756;9.246;2023-04-12T03:50:07;5.53;;;3.80;;
55647;SDS011;45266;48.756;9.246;2023-04-12T03:51:12;5.20;;;3.47;;
55647;SDS011;45266;48.756;9.246;2023-04-12T03:52:15;6.97;;;3.77;;
55647;SDS011;45266;48.756;9.246;2023-04-12T03:53:17;5.25;;;3.75;;
55647;SDS011;45266;48.756;9.246;2023-04-12T03:54:18;7.03;;;3.93;;
55647;SDS011;45266;48.756;9.246;2023-04-12T03:55:20;8.50;;;4.20;;
55647;SDS011;45266;48.756;9.246;2023-04-12T03:56:22;6.50;;;3.83;;
55647;SDS011;45266;48.756;9.246;2023-04-12T03:57:24;6.97;;;4.47;;
55647;SDS011;45266;48.756;9.246;2023-04-12T03:58:26;4.53;;;3.37;;
55647;SDS011;45266;48.756;9.246;2023-04-12T03:59:28;6.17;;;3.80;;
55647;SDS011;45266;48.756;9.246;2023-04-12T04:00:30;6.90;;;3.73;;
55647;SDS011;45266;48.756;9.246;2023-04-12T04:01:33;7.27;;;3.77;;
55647;SDS011;45266;48.756;9.246;2023-04-12T04:02:35;7.27;;;3.70;;
55647;SDS011;45266;48.756;9.246;2023-04-12T04:03:37;4.70;;;3.60;;
55647;SDS011;45266;48.756;9.246;2023-04-12T04:04:41;7.03;;;4.05;;
55647;SDS011;45266;48.756;9.246;2023-04-12T04:05:43;5.53;;;3.53;;
55647;SDS011;45266;48.756;9.246;2023-04-12T04:06:45;5.80;;;4.07;;
55647;SDS011;45266;48.756;9.246;2023-04-12T04:07:47;7.17;;;4.10;;
55647;SDS011;45266;48.756;9.246;2023-04-12T04:08:49;7.10;;;3.80;;
55647;SDS011;45266;48.756;9.246;2023-04-12T04:09:52;5.60;;;3.77;;
55647;SDS011;45266;48.756;9.246;2023-04-12T04:10:58;5.47;;;3.70;;
55647;SDS011;45266;48.756;9.246;2023-04-12T04:12:00;4.60;;;3.37;;
55647;SDS011;45266;48.756;9.246;2023-04-12T04:13:02;6.43;;;3.60;;
55647;SDS011;45266;48.756;9.246;2023-04-12T04:14:04;8.00;;;3.90;;
55647;SDS011;45266;48.756;9.246;2023-04-12T04:15:06;7.50;;;3.07;;
55647;SDS011;45266;48.756;9.246;2023-04-12T04:16:08;9.33;;;3.77;;
55647;SDS011;45266;48.756;9.246;2023-04-12T04:17:11;5.77;;;3.77;;
55647;SDS011;45266;48.756;9.246;2023-04-12T04:18:12;7.27;;;3.73;;
55647;SDS011;45266;48.756;9.246;2023-04-12T04:19:14;6.50;;;3.87;;
55647;SDS011;45266;48.756;9.246;2023-04-12T04:20:16;5.13;;;3.50;;
55647;SDS011;45266;48.756;9.246;2023-04-12T04:21:19;7.43;;;3.60;;
55647;SDS011;45266;48.756;9.246;2023-04-12T04:22:22;4.70;;;3.37;;
55647;SDS011;45266;48.756;9.246;2023-04-12T04:23:24;6.87;;;4.10;;
55647;SDS011;45266;48.756;9.246;2023-04-12T04:24:26;5.10;;;3.50;;
55647;SDS011;45266;48.756;9.246;2023-04-12T04:25:27;4.30;;;3.13;;
55647;SDS011;45266;48.756;9.246;2023-04-12T04:26:33;5.67;;;3.23;;
55647;SDS011;45266;48.756;9.246;2023-04-12T04:27:35;5.17;;;3.13;;
55647;SDS011;45266;48.756;9.246;2023-04-12T04:28:39;7.10;;;3.70;;
55647;SDS011;45266;48.756;9.246;2023-04-12T04:29:45;6.07;;;3.50;;
55647;SDS011;45266;48.756;9.246;2023-04-12T04:30:47;4.67;;;3.53;;
55647;SDS011;45266;48.756;9.246;2023-04-12T04:31:51;10.53;;;4.00;;
55647;SDS011;45266;48.756;9.246;2023-04-12T04:32:54;4.20;;;3.33;;
55647;SDS011;45266;48.756;9.246;2023-04-12T04:33:55;5.37;;;3.37;;
55647;SDS011;45266;48.756;9.246;2023-04-12T04:34:59;6.80;;;3.90;;
55647;SDS011;45266;48.756;9.246;2023-04-12T04:36:01;6.17;;;3.50;;
55647;SDS011;45266;48.756;9.246;2023-04-12T04:37:06;6.43;;;3.63;;
55647;SDS011;45266;48.756;9.246;2023-04-12T04:38:08;5.33;;;3.70;;
55647;SDS011;45266;48.756;9.246;2023-04-12T04:39:10;7.07;;;3.40;;
55647;SDS011;45266;48.756;9.246;2023-04-12T04:40:12;6.20;;;3.43;;
55647;SDS011;45266;48.756;9.246;2023-04-12T04:41:14;6.70;;;4.37;;
55647;SDS011;45266;48.756;9.246;2023-04-12T04:42:17;7.37;;;3.53;;
55647;SDS011;45266;48.756;9.246;2023-04-12T04:43:20;7.20;;;3.93;;
55647;SDS011;45266;48.756;9.246;2023-04-12T04:44:22;7.37;;;3.30;;
55647;SDS011;45266;48.756;9.246;2023-04-12T04:45:25;5.27;;;4.03;;
55647;SDS011;45266;48.756;9.246;2023-04-12T04:46:28;7.10;;;4.10;;
55647;SDS011;45266;48.756;9.246;2023-04-12T04:47:31;6.17;;;3.77;;
55647;SDS011;45266;48.756;9.246;2023-04-12T04:48:33;8.30;;;3.37;;
55647;SDS011;45266;48.756;9.246;2023-04-12T04:49:35;8.63;;;3.80;;
55647;SDS011;45266;48.756;9.246;2023-04-12T04:50:40;6.40;;;3.97;;
55647;SDS011;45266;48.756;9.246;2023-04-12T04:51:42;7.30;;;3.80;;
55647;SDS011;45266;48.756;9.246;2023-04-12T04:52:44;6.70;;;3.47;;
55647;SDS011;45266;48.756;9.246;2023-04-12T04:53:48;6.47;;;3.47;;
55647;SDS011;45266;48.756;9.246;2023-04-12T04:54:50;5.30;;;3.40;;
55647;SDS011;45266;48.756;9.246;2023-04-12T04:55:58;4.93;;;3.47;;
55647;SDS011;45266;48.756;9.246;2023-04-12T04:57:01;5.53;;;3.40;;
55647;SDS011;45266;48.756;9.246;2023-04-12T04:58:04;3.80;;;3.30;;
55647;SDS011;45266;48.756;9.246;2023-04-12T04:59:06;4.73;;;3.30;;
55647;SDS011;45266;48.756;9.246;2023-04-12T05:00:08;4.17;;;3.33;;
55647;SDS011;45266;48.756;9.246;2023-04-12T05:01:14;5.20;;;3.20;;
55647;SDS011;45266;48.756;9.246;2023-04-12T05:02:17;6.30;;;3.40;;
55647;SDS011;45266;48.756;9.246;2023-04-12T05:03:18;5.50;;;3.37;;
55647;SDS011;45266;48.756;9.246;2023-04-12T05:04:20;5.00;;;3.40;;
55647;SDS011;45266;48.756;9.246;2023-04-12T05:05:22;5.33;;;3.27;;
55647;SDS011;45266;48.756;9.246;2023-04-12T05:06:26;5.27;;;3.37;;
55647;SDS011;45266;48.756;9.246;2023-04-12T05:07:28;3.03;;;2.70;;
55647;SDS011;45266;48.756;9.246;2023-04-12T05:08:30;4.47;;;2.90;;
55647;SDS011;45266;48.756;9.246;2023-04-12T05:09:32;4.40;;;3.10;;
55647;SDS011;45266;48.756;9.246;2023-04-12T05:10:33;5.83;;;3.20;;
55647;SDS011;45266;48.756;9.246;2023-04-12T05:11:35;5.47;;;3.10;;
55647;SDS011;45266;48.756;9.246;2023-04-12T05:12:37;5.23;;;3.20;;
55647;SDS011;45266;48.756;9.246;2023-04-12T05:13:39;5.45;;;3.13;;
55647;SDS011;45266;48.756;9.246;2023-04-12T05:14:41;4.03;;;2.80;;
55647;SDS011;45266;48.756;9.246;2023-04-12T05:15:51;3.70;;;2.80;;
55647;SDS011;45266;48.756;9.246;2023-04-12T05:16:53;4.47;;;3.00;;
55647;SDS011;45266;48.756;9.246;2023-04-12T05:17:55;5.90;;;2.97;;
55647;SDS011;45266;48.756;9.246;2023-04-12T05:18:57;4.97;;;3.00;;
55647;SDS011;45266;48.756;9.246;2023-04-12T05:19:59;4.50;;;3.27;;
55647;SDS011;45266;48.756;9.246;2023-04-12T05:21:02;6.00;;;3.40;;
55647;SDS011;45266;48.756;9.246;2023-04-12T05:22:04;5.63;;;3.50;;
55647;SDS011;45266;48.756;9.246;2023-04-12T05:23:06;5.80;;;3.33;;
55647;SDS011;45266;48.756;9.246;2023-04-12T05:24:08;5.37;;;2.97;;
55647;SDS011;45266;48.756;9.246;2023-04-12T05:25:10;4.13;;;3.00;;
55647;SDS011;45266;48.756;9.246;2023-04-12T05:26:11;7.70;;;3.53;;
55647;SDS011;45266;48.756;9.246;2023-04-12T05:27:13;4.83;;;3.17;;
55647;SDS011;45266;48.756;9.246;2023-04-12T05:28:19;6.50;;;3.43;;
55647;SDS011;45266;48.756;9.246;2023-04-12T05:29:20;5.53;;;3.20;;
55647;SDS011;45266;48.756;9.246;2023-04-12T05:30:22;6.37;;;2.90;;
55647;SDS011;45266;48.756;9.246;2023-04-12T05:31:24;6.80;;;3.50;;
55647;SDS011;45266;48.756;9.246;2023-04-12T05:32:27;4.93;;;3.30;;
55647;SDS011;45266;48.756;9.246;2023-04-12T05:33:29;5.63;;;3.00;;
55647;SDS011;45266;48.756;9.246;2023-04-12T05:34:33;3.73;;;3.03;;
55647;SDS011;45266;48.756;9.246;2023-04-12T05:35:37;5.73;;;3.17;;
55647;SDS011;45266;48.756;9.246;2023-04-12T05:36:43;4.33;;;2.80;;
55647;SDS011;45266;48.756;9.246;2023-04-12T05:37:44;5.07;;;3.00;;
55647;SDS011;45266;48.756;9.246;2023-04-12T05:38:46;3.60;;;3.13;;
55647;SDS011;45266;48.756;9.246;2023-04-12T05:39:48;5.90;;;3.57;;
55647;SDS011;45266;48.756;9.246;2023-04-12T05:40:51;4.90;;;3.30;;
55647;SDS011;45266;48.756;9.246;2023-04-12T05:41:55;5.83;;;3.53;;
55647;SDS011;45266;48.756;9.246;2023-04-12T05:42:57;4.83;;;2.57;;
55647;SDS011;45266;48.756;9.246;2023-04-12T05:43:59;4.10;;;3.70;;
55647;SDS011;45266;48.756;9.246;2023-04-12T05:45:02;4.33;;;3.40;;
55647;SDS011;45266;48.756;9.246;2023-04-12T05:46:05;4.73;;;3.13;;
55647;SDS011;45266;48.756;9.246;2023-04-12T05:47:10;5.07;;;3.53;;
55647;SDS011;45266;48.756;9.246;2023-04-12T05:48:12;5.23;;;3.07;;
55647;SDS011;45266;48.756;9.246;2023-04-12T05:49:14;5.47;;;3.30;;
55647;SDS011;45266;48.756;9.246;2023-04-12T05:50:16;5.67;;;3.23;;
55647;SDS011;45266;48.756;9.246;2023-04-12T05:51:18;7.20;;;3.70;;
55647;SDS011;45266;48.756;9.246;2023-04-12T05:52:38;5.70;;;3.00;;
55647;SDS011;45266;48.756;9.246;2023-04-12T05:53:40;5.73;;;3.47;;
55647;SDS011;45266;48.756;9.246;2023-04-12T05:54:42;3.70;;;3.27;;
55647;SDS011;45266;48.756;9.246;2023-04-12T05:55:44;6.13;;;3.63;;
55647;SDS011;45266;48.756;9.246;2023-04-12T05:56:50;5.00;;;3.10;;
55647;SDS011;45266;48.756;9.246;2023-04-12T05:57:52;5.60;;;3.40;;
55647;SDS011;45266;48.756;9.246;2023-04-12T05:58:54;6.57;;;3.23;;
55647;SDS011;45266;48.756;9.246;2023-04-12T05:59:56;5.97;;;3.33;;
55647;SDS011;45266;48.756;9.246;2023-04-12T06:01:00;4.03;;;3.20;;
55647;SDS011;45266;48.756;9.246;2023-04-12T06:02:03;6.38;;;3.20;;
55647;SDS011;45266;48.756;9.246;2023-04-12T06:03:05;6.57;;;3.20;;
55647;SDS011;45266;48.756;9.246;2023-04-12T06:04:07;3.90;;;3.13;;
55647;SDS011;45266;48.756;9.246;2023-04-12T06:05:10;5.07;;;3.27;;
55647;SDS011;45266;48.756;9.246;2023-04-12T06:06:15;5.90;;;3.43;;
55647;SDS011;45266;48.756;9.246;2023-04-12T06:07:17;5.80;;;3.40;;
55647;SDS011;45266;48.756;9.246;2023-04-12T06:08:20;4.30;;;3.40;;
55647;SDS011;45266;48.756;9.246;2023-04-12T06:09:22;6.50;;;3.43;;
55647;SDS011;45266;48.756;9.246;2023-04-12T06:10:23;4.47;;;3.10;;
55647;SDS011;45266;48.756;9.246;2023-04-12T06:11:27;4.43;;;3.30;;
55647;SDS011;45266;48.756;9.246;2023-04-12T06:12:36;6.57;;;3.60;;
55647;SDS011;45266;48.756;9.246;2023-04-12T06:13:42;5.37;;;3.23;;
55647;SDS011;45266;48.756;9.246;2023-04-12T06:14:46;4.70;;;3.23;;
55647;SDS011;45266;48.756;9.246;2023-04-12T06:15:54;5.43;;;3.30;;
55647;SDS011;45266;48.756;9.246;2023-04-12T06:16:59;4.77;;;3.40;;
55647;SDS011;45266;48.756;9.246;2023-04-12T06:18:05;4.60;;;3.20;;
55647;SDS011;45266;48.756;9.246;2023-04-12T06:19:09;5.27;;;3.27;;
55647;SDS011;45266;48.756;9.246;2023-04-12T06:20:11;4.77;;;2.93;;
55647;SDS011;45266;48.756;9.246;2023-04-12T06:21:13;4.70;;;3.50;;
55647;SDS011;45266;48.756;9.246;2023-04-12T06:22:15;3.77;;;2.90;;
55647;SDS011;45266;48.756;9.246;2023-04-12T06:23:20;7.30;;;2.97;;
55647;SDS011;45266;48.756;9.246;2023-04-12T06:24:26;6.43;;;3.37;;
55647;SDS011;45266;48.756;9.246;2023-04-12T06:25:32;5.90;;;2.97;;
55647;SDS011;45266;48.756;9.246;2023-04-12T06:26:37;4.80;;;2.92;;
55647;SDS011;45266;48.756;9.246;2023-04-12T06:27:41;5.30;;;3.07;;
55647;SDS011;45266;48.756;9.246;2023-04-12T06:28:44;6.93;;;3.40;;
55647;SDS011;45266;48.756;9.246;2023-04-12T06:29:45;5.33;;;3.30;;
55647;SDS011;45266;48.756;9.246;2023-04-12T06:30:47;4.93;;;2.90;;
55647;SDS011;45266;48.756;9.246;2023-04-12T06:31:52;4.80;;;3.30;;
55647;SDS011;45266;48.756;9.246;2023-04-12T06:32:55;5.10;;;3.38;;